Annemanie, Alabama
Current Conditions -  °F | °C
As of 11:35 AM on Thursday 30 Oct 2014 (Local Time) from KDYA Reporting Station
Clear Clear  
Wind Chill: 67°   Ceiling: Unl
Heat Index: 67°   Visibility: 10mi
Dew Point: 34°   Wind: 9mph
Humidity: 30%   Direction: 360°N
Pressure: 30.13"   Gusts: NA
Location:  32.05°N, 87.57°W
Report Text: KDYA 301635Z AUTO 36008KT 340V040 10SM CLR 19/01 A3013 RMK AO2 T01930013
Loading
Personal Weather Stations






























Interactive Weather Map
Tropical Storm Tracking
New forecast layout! Learn more

10-Day Weather Forecast

Advertisements
Track Severe Weather on mobile